Time;durP1;ratioP1;P1;durP2;ratioP2;P2;SDS_P1;SDS_P2;PMS_P1;PMS_P2;Temp;Humidity;BMP_temperature;BMP_pressure;BME280_temperature;BME280_humidity;BME280_pressure;Samples;Min_cycle;Max_cycle;Signal;HPM_P1;HPM_P2
2021/03/10 00:01:57;;;;;;;65.40;38.63;;;8.00;99.90;;;;;;5124955;28;20167;-71
2021/03/10 00:04:22;;;;;;;67.67;38.20;;;8.10;99.90;;;;;;5126158;28;20257;-70
2021/03/10 00:06:48;;;;;;;71.97;39.53;;;8.30;99.90;;;;;;5126448;28;20162;-70
2021/03/10 00:09:14;;;;;;;64.70;37.73;;;8.30;99.90;;;;;;5126711;28;20193;-70
2021/03/10 00:11:40;;;;;;;71.80;40.57;;;8.30;99.90;;;;;;5123904;28;20162;-70
2021/03/10 00:14:05;;;;;;;70.30;39.43;;;8.20;99.90;;;;;;5126347;28;20233;-70
2021/03/10 00:16:31;;;;;;;74.40;38.23;;;8.20;99.90;;;;;;5126336;28;20198;-70
2021/03/10 00:18:57;;;;;;;70.93;40.30;;;7.90;99.90;;;;;;5126076;28;20178;-70
2021/03/10 00:21:23;;;;;;;73.80;39.23;;;7.70;99.90;;;;;;5122522;28;20230;-70
2021/03/10 00:23:48;;;;;;;68.60;38.67;;;7.60;99.90;;;;;;5159153;27;20185;-70
2021/03/10 00:26:14;;;;;;;68.67;40.10;;;7.50;99.90;;;;;;5126301;28;20167;-71
2021/03/10 00:28:39;;;;;;;70.77;38.23;;;7.40;99.90;;;;;;5125965;28;20440;-71
2021/03/10 00:31:05;;;;;;;69.30;36.83;;;7.40;99.90;;;;;;5122348;28;20163;-70
2021/03/10 00:33:31;;;;;;;68.67;37.53;;;7.60;99.90;;;;;;5125482;28;20170;-70
2021/03/10 00:35:56;;;;;;;64.10;38.47;;;7.50;99.90;;;;;;5126314;28;20190;-70
2021/03/10 00:38:22;;;;;;;70.07;39.70;;;7.60;99.90;;;;;;5126285;28;20166;-71
2021/03/10 00:40:48;;;;;;;65.97;36.97;;;7.60;99.90;;;;;;5123428;28;20214;-71
2021/03/10 00:43:13;;;;;;;62.43;36.83;;;7.50;99.90;;;;;;5125977;28;20569;-71
2021/03/10 00:45:39;;;;;;;67.73;38.53;;;7.40;99.90;;;;;;5159134;27;20182;-71
2021/03/10 00:48:05;;;;;;;57.57;35.40;;;7.40;99.90;;;;;;5125720;28;20174;-70
2021/03/10 00:50:30;;;;;;;65.83;36.90;;;7.60;99.90;;;;;;5123527;28;20167;-70
2021/03/10 00:52:57;;;;;;;59.53;36.67;;;7.60;99.90;;;;;;5126072;28;20174;-71
2021/03/10 00:55:23;;;;;;;65.70;37.33;;;7.90;99.90;;;;;;5159135;27;20198;-70
2021/03/10 00:57:49;;;;;;;62.57;35.07;;;7.60;99.90;;;;;;5126350;28;20166;-70
2021/03/10 01:00:16;;;;;;;67.10;34.90;;;7.50;99.90;;;;;;5123258;28;20159;-70
2021/03/10 01:02:42;;;;;;;65.97;33.40;;;7.40;99.90;;;;;;5125645;28;20232;-71
2021/03/10 01:05:08;;;;;;;61.67;32.97;;;7.40;99.90;;;;;;5125806;28;20651;-70
2021/03/10 01:07:34;;;;;;;60.93;34.83;;;7.40;99.90;;;;;;5125673;28;20227;-70
2021/03/10 01:10:00;;;;;;;58.93;35.30;;;7.30;99.90;;;;;;5121772;28;20155;-70
2021/03/10 01:12:26;;;;;;;66.00;33.53;;;7.40;99.90;;;;;;5124416;28;20506;-70
2021/03/10 01:14:51;;;;;;;59.27;33.37;;;7.50;99.90;;;;;;5125759;28;20246;-70
2021/03/10 01:17:17;;;;;;;69.27;33.80;;;7.60;99.90;;;;;;5128147;28;20249;-70
2021/03/10 01:19:43;;;;;;;63.83;33.13;;;7.70;99.90;;;;;;5160679;27;20525;-71
2021/03/10 01:22:08;;;;;;;65.43;34.13;;;7.50;99.90;;;;;;5129180;28;20196;-70
2021/03/10 01:24:34;;;;;;;58.90;32.97;;;7.50;99.90;;;;;;5129418;28;20171;-70
2021/03/10 01:26:59;;;;;;;54.60;32.10;;;7.50;99.90;;;;;;5129588;28;20650;-70
2021/03/10 01:29:25;;;;;;;66.50;32.53;;;7.10;99.90;;;;;;5129414;28;20214;-70
2021/03/10 01:31:50;;;;;;;61.60;30.80;;;7.00;99.90;;;;;;5125611;28;20167;-71
2021/03/10 01:34:16;;;;;;;59.03;31.70;;;6.90;99.90;;;;;;5129173;28;20181;-70
2021/03/10 01:36:42;;;;;;;60.33;32.17;;;6.60;99.90;;;;;;5129186;28;20195;-70
2021/03/10 01:39:07;;;;;;;58.63;31.83;;;6.50;99.90;;;;;;5129407;28;20167;-71
2021/03/10 01:41:33;;;;;;;62.83;33.03;;;6.50;99.90;;;;;;5126543;28;20163;-71
2021/03/10 01:43:59;;;;;;;77.07;33.63;;;6.40;99.90;;;;;;5129360;28;20181;-71
2021/03/10 01:46:36;;;;;;;58.97;30.37;;;6.30;99.90;;;;;;5129354;28;20188;-70
2021/03/10 01:49:02;;;;;;;67.63;31.37;;;6.30;99.90;;;;;;5129122;28;20175;-70
2021/03/10 01:51:28;;;;;;;57.80;32.17;;;6.30;99.90;;;;;;5126578;28;20185;-70
2021/03/10 01:53:53;;;;;;;59.13;30.27;;;6.30;99.90;;;;;;5129071;28;20179;-70
2021/03/10 01:56:24;;;;;;;79.30;33.33;;;6.10;99.90;;;;;;5128851;28;20194;-70
2021/03/10 01:58:50;;;;;;;62.33;31.13;;;6.10;99.90;;;;;;5128833;28;20192;-70
2021/03/10 02:01:16;;;;;;;64.73;32.93;;;6.30;99.90;;;;;;5126512;28;20230;-71
2021/03/10 02:03:41;;;;;;;62.03;32.57;;;6.60;99.90;;;;;;5128391;28;20178;-70
2021/03/10 02:06:10;;;;;;;68.63;37.17;;;6.70;99.90;;;;;;5128904;28;20247;-70
2021/03/10 02:08:45;;;;;;;69.83;38.97;;;6.70;99.90;;;;;;5128721;27;20239;-70
2021/03/10 02:11:21;;;;;;;65.90;38.70;;;6.70;99.90;;;;;;5126180;28;20162;-70
2021/03/10 02:14:24;;;;;;;66.10;36.83;;;6.60;99.90;;;;;;5128439;28;20170;-70
2021/03/10 02:17:00;;;;;;;63.53;37.37;;;6.50;99.90;;;;;;5128333;28;20198;-70
2021/03/10 02:20:01;;;;;;;68.70;35.93;;;6.60;99.90;;;;;;5128302;28;20696;-70
2021/03/10 02:22:59;;;;;;;59.43;35.57;;;6.60;99.90;;;;;;5126964;28;20223;-70
2021/03/10 02:25:40;;;;;;;59.30;35.13;;;6.40;99.90;;;;;;5127225;28;20170;-70
2021/03/10 02:28:07;;;;;;;68.93;36.67;;;6.20;99.90;;;;;;5128285;28;20221;-70
2021/03/10 02:30:38;;;;;;;69.40;36.83;;;6.10;99.90;;;;;;5125586;27;20173;-70
2021/03/10 02:33:09;;;;;;;60.30;36.53;;;6.20;99.90;;;;;;5127999;28;20517;-71
2021/03/10 02:35:38;;;;;;;65.83;38.07;;;6.20;99.90;;;;;;5128137;28;20329;-70
2021/03/10 02:38:07;;;;;;;60.07;36.20;;;6.10;99.90;;;;;;5128426;28;20155;-70
2021/03/10 02:40:33;;;;;;;64.60;38.13;;;6.00;99.90;;;;;;5124170;28;20583;-70
2021/03/10 02:42:59;;;;;;;64.93;38.43;;;6.10;99.90;;;;;;5128106;28;20230;-70
2021/03/10 02:45:27;;;;;;;61.27;37.00;;;6.10;99.90;;;;;;5128228;28;20197;-70
2021/03/10 02:47:55;;;;;;;72.97;38.67;;;6.00;99.90;;;;;;5127840;28;20163;-71
2021/03/10 02:50:22;;;;;;;61.20;36.20;;;5.90;99.90;;;;;;5125673;28;20159;-70
2021/03/10 02:52:48;;;;;;;63.90;36.53;;;6.00;99.90;;;;;;5127583;28;20165;-70
2021/03/10 02:55:14;;;;;;;65.83;38.63;;;6.00;99.90;;;;;;5127882;28;20250;-70
2021/03/10 02:57:40;;;;;;;65.63;37.60;;;6.00;99.90;;;;;;5127697;28;20715;-70
2021/03/10 03:00:12;;;;;;;61.40;37.20;;;6.10;99.90;;;;;;5125292;28;20205;-70
2021/03/10 03:02:39;;;;;;;69.97;42.65;;;6.00;99.90;;;;;;5125544;28;20411;-70
2021/03/10 03:05:06;;;;;;;66.03;37.60;;;5.90;99.90;;;;;;5127772;28;20155;-70
2021/03/10 03:07:33;;;;;;;70.43;39.03;;;5.70;99.90;;;;;;5127541;28;20151;-70
2021/03/10 03:10:00;;;;;;;73.97;39.00;;;5.70;99.90;;;;;;5123673;28;20163;-70
2021/03/10 03:12:27;;;;;;;64.17;37.20;;;5.90;99.90;;;;;;5127769;28;20178;-70
2021/03/10 03:14:54;;;;;;;67.33;37.50;;;6.00;99.90;;;;;;5127388;28;20174;-70
2021/03/10 03:17:20;;;;;;;71.40;38.83;;;6.00;99.90;;;;;;5160532;27;20334;-70
2021/03/10 03:19:46;;;;;;;69.07;38.80;;;5.90;99.90;;;;;;5124889;28;20171;-70
2021/03/10 03:22:14;;;;;;;63.80;36.63;;;5.80;99.90;;;;;;5127002;28;20216;-70
2021/03/10 03:24:40;;;;;;;63.60;38.67;;;5.70;99.90;;;;;;5127035;28;20554;-70
2021/03/10 03:27:08;;;;;;;61.60;37.43;;;5.50;99.90;;;;;;5127446;28;20249;-70
2021/03/10 03:29:34;;;;;;;64.73;37.90;;;5.70;99.90;;;;;;5126231;28;20221;-70
2021/03/10 03:32:00;;;;;;;62.10;36.37;;;5.70;99.90;;;;;;5124274;28;20166;-70
2021/03/10 03:34:26;;;;;;;65.83;36.93;;;5.60;99.90;;;;;;5126857;28;20174;-70
2021/03/10 03:36:53;;;;;;;68.47;38.27;;;5.70;99.90;;;;;;5126905;28;20257;-69
2021/03/10 03:39:20;;;;;;;71.67;39.33;;;5.70;99.90;;;;;;5126520;28;20172;-70
2021/03/10 03:41:46;;;;;;;61.87;36.50;;;5.90;99.90;;;;;;5124478;28;20174;-70
2021/03/10 03:44:12;;;;;;;70.90;38.47;;;5.60;99.90;;;;;;5125557;28;20166;-70
2021/03/10 03:46:38;;;;;;;66.13;37.57;;;5.80;99.90;;;;;;5125418;28;20171;-70
2021/03/10 03:49:03;;;;;;;66.57;38.57;;;5.70;99.90;;;;;;5126738;28;20202;-70
2021/03/10 03:51:31;;;;;;;72.13;37.53;;;5.80;99.90;;;;;;5122928;28;20184;-70
2021/03/10 03:54:02;;;;;;;65.67;36.10;;;5.70;99.90;;;;;;5126606;28;20209;-70
2021/03/10 03:56:29;;;;;;;69.13;39.20;;;5.70;99.90;;;;;;5126448;28;20197;-70
2021/03/10 03:58:55;;;;;;;62.13;36.47;;;5.80;99.90;;;;;;5127020;28;20163;-70
2021/03/10 04:01:21;;;;;;;69.73;39.33;;;5.90;99.90;;;;;;5124096;28;20191;-70
2021/03/10 04:03:47;;;;;;;74.30;38.40;;;5.90;99.90;;;;;;5126381;28;20174;-70
2021/03/10 04:06:14;;;;;;;69.53;37.57;;;5.90;99.90;;;;;;5126666;28;20167;-70
2021/03/10 04:08:42;;;;;;;66.40;37.90;;;5.90;99.90;;;;;;5125182;28;20190;-70
2021/03/10 04:11:09;;;;;;;66.57;36.17;;;5.80;99.90;;;;;;5124027;28;20166;-70
2021/03/10 04:13:35;;;;;;;64.17;36.70;;;5.80;99.90;;;;;;5126433;28;20197;-69
2021/03/10 04:16:01;;;;;;;65.37;36.20;;;5.60;99.90;;;;;;5125047;28;20208;-70
2021/03/10 04:18:26;;;;;;;69.43;38.33;;;5.70;99.90;;;;;;5126012;28;20235;-70
2021/03/10 04:20:52;;;;;;;66.87;34.93;;;5.70;99.90;;;;;;5122738;28;20166;-70
2021/03/10 04:23:18;;;;;;;70.33;35.60;;;5.50;99.90;;;;;;5126143;28;20167;-70
2021/03/10 04:25:43;;;;;;;64.93;36.60;;;5.50;99.90;;;;;;5126056;28;20163;-70
2021/03/10 04:28:09;;;;;;;62.93;35.97;;;5.40;99.90;;;;;;5126341;28;20210;-70
2021/03/10 04:30:35;;;;;;;58.57;34.13;;;5.30;99.90;;;;;;5123892;28;20214;-70
2021/03/10 04:33:01;;;;;;;66.47;35.87;;;5.40;99.90;;;;;;5125830;28;20174;-70
2021/03/10 04:35:26;;;;;;;60.93;33.43;;;5.60;99.90;;;;;;5126013;28;20186;-70
2021/03/10 04:37:52;;;;;;;65.43;35.57;;;5.50;99.90;;;;;;5126488;28;20162;-70
2021/03/10 04:40:19;;;;;;;59.97;35.53;;;5.50;99.90;;;;;;5123693;28;20162;-70
2021/03/10 04:42:45;;;;;;;59.77;34.67;;;5.50;99.90;;;;;;5124726;28;20177;-70
2021/03/10 04:45:12;;;;;;;59.73;35.37;;;5.60;99.90;;;;;;5126030;28;20191;-69
2021/03/10 04:47:42;;;;;;;59.33;33.93;;;5.50;99.90;;;;;;5126085;28;20187;-70
2021/03/10 04:50:09;;;;;;;56.90;34.57;;;5.50;99.90;;;;;;5123453;28;20308;-69
2021/03/10 04:52:35;;;;;;;68.20;35.13;;;5.50;99.90;;;;;;5128941;28;20245;-69
2021/03/10 04:55:00;;;;;;;62.93;35.90;;;5.50;99.90;;;;;;5130251;28;20220;-70
2021/03/10 04:57:26;;;;;;;67.43;37.43;;;5.50;99.90;;;;;;5130006;28;20470;-69
2021/03/10 04:59:52;;;;;;;63.07;35.93;;;5.40;99.90;;;;;;5127921;28;20159;-70
2021/03/10 05:02:17;;;;;;;62.73;33.67;;;5.50;99.90;;;;;;5128550;28;20155;-70
2021/03/10 05:04:43;;;;;;;65.40;33.90;;;5.50;99.90;;;;;;5128365;28;20181;-70
2021/03/10 05:07:09;;;;;;;62.23;35.13;;;5.60;99.90;;;;;;5129601;28;20170;-70
2021/03/10 05:09:34;;;;;;;62.40;33.60;;;5.50;99.90;;;;;;5128869;28;20178;-70
2021/03/10 05:12:00;;;;;;;61.70;34.37;;;5.40;99.90;;;;;;5128136;28;20155;-70
2021/03/10 05:14:26;;;;;;;59.53;33.17;;;5.40;99.90;;;;;;5129136;28;20171;-70
2021/03/10 05:16:51;;;;;;;59.83;33.43;;;5.50;99.90;;;;;;5127848;28;20197;-70
2021/03/10 05:19:17;;;;;;;63.97;33.80;;;5.40;99.90;;;;;;5127839;28;20170;-70
2021/03/10 05:21:43;;;;;;;61.17;31.60;;;5.50;99.90;;;;;;5125587;28;20175;-70
2021/03/10 05:24:09;;;;;;;57.63;32.07;;;5.60;99.90;;;;;;5129558;28;20163;-70
2021/03/10 05:26:38;;;;;;;60.47;32.63;;;5.70;99.90;;;;;;5129329;28;20201;-70
2021/03/10 05:29:04;;;;;;;65.73;32.33;;;5.80;99.90;;;;;;5129504;28;20220;-70
2021/03/10 05:31:30;;;;;;;57.43;31.93;;;5.80;99.90;;;;;;5125437;28;20166;-70
2021/03/10 05:33:55;;;;;;;59.80;30.27;;;5.70;99.90;;;;;;5129323;28;20167;-70
2021/03/10 05:36:22;;;;;;;54.87;30.27;;;5.60;99.90;;;;;;5129293;28;20277;-70
2021/03/10 05:38:48;;;;;;;57.53;31.10;;;5.70;99.90;;;;;;5129270;28;20180;-70
2021/03/10 05:41:15;;;;;;;53.67;29.97;;;5.70;99.90;;;;;;5126746;28;20178;-70
2021/03/10 05:43:42;;;;;;;59.37;29.83;;;5.60;99.90;;;;;;5128845;28;20162;-71
2021/03/10 05:46:08;;;;;;;59.87;28.37;;;5.70;99.90;;;;;;5129109;28;20166;-70
2021/03/10 05:48:35;;;;;;;53.17;31.17;;;5.70;99.90;;;;;;5128953;28;20171;-70
2021/03/10 05:51:01;;;;;;;61.10;32.27;;;5.70;99.90;;;;;;5126614;28;20162;-70
2021/03/10 05:53:28;;;;;;;55.33;31.77;;;5.70;99.90;;;;;;5128754;28;20239;-70
2021/03/10 05:55:59;;;;;;;51.77;31.17;;;5.60;99.90;;;;;;5128989;28;20246;-71
2021/03/10 05:58:24;;;;;;;54.47;29.93;;;5.60;99.90;;;;;;5128804;28;20163;-71
2021/03/10 06:00:50;;;;;;;61.90;30.77;;;5.70;99.90;;;;;;5125922;28;20474;-71
2021/03/10 06:03:16;;;;;;;51.43;27.80;;;5.70;99.90;;;;;;5127489;28;20155;-71
2021/03/10 06:05:45;;;;;;;57.83;32.20;;;5.70;99.90;;;;;;5128382;28;20529;-71
2021/03/10 06:08:17;;;;;;;47.33;27.50;;;5.60;99.90;;;;;;5128746;28;20171;-71
2021/03/10 06:10:47;;;;;;;56.17;29.57;;;5.60;99.90;;;;;;5125844;28;20173;-71
2021/03/10 06:13:28;;;;;;;58.93;30.73;;;5.70;99.90;;;;;;5128518;28;20166;-71
2021/03/10 06:15:56;;;;;;;46.27;27.03;;;5.80;99.90;;;;;;5126907;28;20630;-71
2021/03/10 06:18:30;;;;;;;51.73;28.70;;;5.80;99.90;;;;;;5126946;28;20173;-71
2021/03/10 06:21:10;;;;;;;47.17;25.77;;;5.80;99.90;;;;;;5124562;28;20201;-71
2021/03/10 06:23:47;;;;;;;58.83;25.27;;;5.80;99.90;;;;;;5128219;28;20197;-71
2021/03/10 06:26:20;;;;;;;44.07;24.23;;;5.80;99.90;;;;;;5128048;28;20223;-70
2021/03/10 06:28:46;;;;;;;73.15;40.55;;;5.80;99.90;;;;;;5127128;28;20443;-71
2021/03/10 06:31:31;;;;;;;62.87;32.27;;;5.80;99.90;;;;;;5125644;28;20204;-71
2021/03/10 06:34:02;;;;;;;54.37;29.20;;;5.90;99.90;;;;;;5126860;28;20175;-71
2021/03/10 06:36:30;;;;;;;51.30;26.43;;;5.90;99.90;;;;;;5128097;28;20226;-71
2021/03/10 06:38:56;;;;;;;59.60;25.40;;;5.90;99.90;;;;;;5128372;28;20155;-71
2021/03/10 06:41:28;;;;;;;52.17;26.83;;;5.80;99.90;;;;;;5125686;28;20158;-70
2021/03/10 06:43:54;;;;;;;52.67;26.83;;;5.80;99.90;;;;;;5127962;28;20163;-71
2021/03/10 06:46:20;;;;;;;48.43;25.90;;;5.80;99.90;;;;;;5127923;28;20296;-71
2021/03/10 06:48:51;;;;;;;52.83;26.17;;;5.80;99.90;;;;;;5127469;28;20198;-70
2021/03/10 06:51:18;;;;;;;52.93;26.87;;;5.90;99.90;;;;;;5125240;28;20162;-71
2021/03/10 06:53:44;;;;;;;61.70;28.53;;;5.90;99.90;;;;;;5127482;28;20239;-70
2021/03/10 06:56:20;;;;;;;53.03;26.93;;;6.00;99.90;;;;;;5127564;28;20659;-71
2021/03/10 06:59:06;;;;;;;57.73;26.10;;;5.90;99.90;;;;;;5126071;28;20158;-71
2021/03/10 07:01:43;;;;;;;48.20;24.33;;;6.00;99.90;;;;;;5124811;28;20174;-71
2021/03/10 07:04:13;;;;;;;55.50;24.17;;;5.90;99.90;;;;;;5127095;28;20173;-71
2021/03/10 07:06:40;;;;;;;48.10;23.90;;;6.00;99.90;;;;;;5127326;28;20166;-70
2021/03/10 07:09:13;;;;;;;52.97;25.00;;;6.10;99.90;;;;;;5127459;28;20162;-71
2021/03/10 07:11:42;;;;;;;39.20;19.37;;;6.00;99.90;;;;;;5124681;28;20163;-70
2021/03/10 07:14:11;;;;;;;40.83;21.27;;;5.90;99.90;;;;;;5126256;28;20170;-71
2021/03/10 07:16:37;;;;;;;44.90;23.10;;;5.90;99.90;;;;;;5126625;28;20190;-71
2021/03/10 07:19:08;;;;;;;45.77;21.83;;;6.10;99.90;;;;;;5125635;28;20581;-70
2021/03/10 07:21:44;;;;;;;38.57;21.47;;;6.10;99.90;;;;;;5124563;28;20163;-71
2021/03/10 07:24:16;;;;;;;42.93;20.27;;;6.10;99.90;;;;;;5126973;28;20185;-71
2021/03/10 07:26:43;;;;;;;37.67;21.33;;;6.20;99.90;;;;;;5126917;28;20174;-70
2021/03/10 07:29:11;;;;;;;54.47;22.67;;;6.20;99.90;;;;;;5126959;27;20250;-70
2021/03/10 07:31:37;;;;;;;42.70;22.00;;;6.30;99.90;;;;;;5124131;28;20517;-72
2021/03/10 07:34:03;;;;;;;37.63;21.07;;;6.30;99.90;;;;;;5126439;28;20249;-69
2021/03/10 07:36:37;;;;;;;37.57;20.20;;;6.30;99.90;;;;;;5126588;28;20194;-69
2021/03/10 07:39:05;;;;;;;39.03;19.57;;;6.30;99.90;;;;;;5125553;28;20180;-70
2021/03/10 07:41:37;;;;;;;34.63;20.80;;;6.30;99.90;;;;;;5124122;28;20159;-70
2021/03/10 07:44:13;;;;;;;41.50;21.37;;;6.40;99.90;;;;;;5126625;27;20182;-69
2021/03/10 07:46:39;;;;;;;39.17;19.73;;;6.50;99.90;;;;;;5126466;28;20170;-69
2021/03/10 07:49:25;;;;;;;38.83;19.07;;;6.50;99.90;;;;;;5125140;28;20167;-71
2021/03/10 07:52:02;;;;;;;34.70;19.50;;;6.50;99.90;;;;;;5156798;27;20234;-70
2021/03/10 07:54:28;;;;;;;29.80;18.63;;;6.50;99.90;;;;;;5124875;28;20174;-69
2021/03/10 07:57:06;;;;;;;31.17;18.83;;;6.60;99.90;;;;;;5126623;28;20197;-70
2021/03/10 07:59:32;;;;;;;33.43;19.60;;;6.70;99.90;;;;;;5125808;28;20166;-70
2021/03/10 08:02:08;;;;;;;28.87;17.00;;;6.60;99.90;;;;;;5124552;28;20185;-70
2021/03/10 08:04:37;;;;;;;30.27;17.40;;;6.70;99.90;;;;;;5125853;28;20162;-70
2021/03/10 08:07:02;;;;;;;27.90;17.50;;;6.70;99.90;;;;;;5126408;28;20194;-70
2021/03/10 08:09:29;;;;;;;33.13;16.90;;;6.80;99.90;;;;;;5125601;28;20163;-70
2021/03/10 08:12:11;;;;;;;35.97;16.43;;;6.90;99.90;;;;;;5124328;27;20163;-72
2021/03/10 08:14:38;;;;;;;29.30;16.93;;;7.00;99.90;;;;;;5125900;28;20185;-70
2021/03/10 08:17:05;;;;;;;34.10;15.93;;;7.10;99.90;;;;;;5126139;28;20190;-70
2021/03/10 08:19:32;;;;;;;28.57;15.37;;;7.00;99.90;;;;;;5125243;28;20185;-70
2021/03/10 08:21:57;;;;;;;27.63;15.97;;;7.00;99.90;;;;;;5124199;28;20162;-69
2021/03/10 08:24:25;;;;;;;25.50;15.43;;;7.20;99.90;;;;;;5125911;28;20167;-70
2021/03/10 08:27:01;;;;;;;30.10;16.63;;;7.10;99.90;;;;;;5126007;28;20246;-70
2021/03/10 08:29:27;;;;;;;32.57;16.30;;;7.20;99.90;;;;;;5125915;28;20214;-71
2021/03/10 08:31:55;;;;;;;27.17;14.83;;;7.30;99.90;;;;;;5122149;28;20158;-71
2021/03/10 08:34:38;;;;;;;22.87;15.10;;;7.20;99.90;;;;;;5125820;28;20175;-71
2021/03/10 08:37:06;;;;;;;27.20;14.93;;;7.20;99.90;;;;;;5126184;28;20194;-71
2021/03/10 08:39:33;;;;;;;27.00;15.13;;;7.20;99.90;;;;;;5124345;28;20161;-70
2021/03/10 08:41:59;;;;;;;28.60;15.23;;;7.10;99.90;;;;;;5122100;28;20155;-70
2021/03/10 08:44:26;;;;;;;30.83;15.63;;;7.20;99.90;;;;;;5125962;28;20215;-70
2021/03/10 08:46:54;;;;;;;28.70;15.37;;;7.40;99.90;;;;;;5123961;28;20234;-70
2021/03/10 08:49:31;;;;;;;27.10;16.53;;;7.30;99.90;;;;;;5124925;28;20172;-70
2021/03/10 08:52:11;;;;;;;31.03;16.00;;;7.50;99.90;;;;;;5123780;28;20158;-70
2021/03/10 08:54:56;;;;;;;29.07;15.07;;;7.50;99.90;;;;;;5124033;28;20168;-70
2021/03/10 08:57:30;;;;;;;31.57;15.87;;;7.60;99.90;;;;;;5123799;28;20190;-70
2021/03/10 08:59:57;;;;;;;38.53;18.20;;;7.70;99.90;;;;;;5123021;28;20242;-70
2021/03/10 09:02:30;;;;;;;35.60;16.47;;;7.80;99.90;;;;;;5125510;28;20155;-70
2021/03/10 09:04:56;;;;;;;31.10;15.87;;;7.90;99.90;;;;;;5123989;28;20182;-69
2021/03/10 09:07:23;;;;;;;45.28;19.85;;;7.90;99.90;;;;;;5124169;28;20429;-70
2021/03/10 09:09:57;;;;;;;46.63;19.90;;;8.00;99.90;;;;;;5123320;28;20381;-70
2021/03/10 09:12:24;;;;;;;33.60;18.17;;;8.10;99.90;;;;;;5125887;28;20545;-70
2021/03/10 09:14:50;;;;;;;33.07;17.13;;;8.30;99.90;;;;;;5123980;28;20174;-69
2021/03/10 09:17:16;;;;;;;36.90;17.50;;;8.20;99.90;;;;;;5124296;28;20193;-70
2021/03/10 09:19:45;;;;;;;21.63;13.80;;;8.40;99.90;;;;;;5123618;28;20167;-70
2021/03/10 09:22:22;;;;;;;22.67;13.33;;;8.50;99.90;;;;;;5125236;28;20219;-70
2021/03/10 09:24:58;;;;;;;26.03;14.23;;;8.50;99.90;;;;;;5125371;28;20519;-70
2021/03/10 09:27:28;;;;;;;25.80;13.80;;;8.30;99.90;;;;;;5125200;28;20159;-70
2021/03/10 09:29:59;;;;;;;18.60;13.20;;;8.10;99.90;;;;;;5122809;28;20193;-70
2021/03/10 09:32:36;;;;;;;31.00;12.57;;;8.30;99.90;;;;;;5125421;28;20235;-70
2021/03/10 09:35:15;;;;;;;19.10;11.63;;;8.20;99.90;;;;;;5124841;28;20162;-70
2021/03/10 09:37:47;;;;;;;21.70;11.73;;;8.20;99.90;;;;;;5124425;28;20537;-70
2021/03/10 09:40:14;;;;;;;21.50;11.67;;;8.40;99.90;;;;;;5126404;28;20170;-70
2021/03/10 09:42:39;;;;;;;21.33;12.43;;;8.40;99.90;;;;;;5128937;28;20158;-70
2021/03/10 09:45:06;;;;;;;22.67;11.03;;;8.60;99.90;;;;;;5128828;28;20170;-70
2021/03/10 09:47:31;;;;;;;17.67;11.40;;;8.60;99.90;;;;;;5128759;28;20163;-70
2021/03/10 09:49:59;;;;;;;30.00;12.43;;;8.70;99.90;;;;;;5126091;28;20234;-70
2021/03/10 09:52:36;;;;;;;16.70;11.43;;;8.70;99.90;;;;;;5128875;28;20185;-71
2021/03/10 09:55:06;;;;;;;17.53;12.57;;;8.90;99.90;;;;;;5127323;28;20199;-71
2021/03/10 09:57:31;;;;;;;18.93;11.63;;;9.10;99.90;;;;;;5126692;28;20210;-71
2021/03/10 09:59:58;;;;;;;14.63;10.83;;;9.00;99.90;;;;;;5126078;28;20169;-71
2021/03/10 10:02:25;;;;;;;14.00;11.00;;;9.00;99.90;;;;;;5127850;28;20572;-70
2021/03/10 10:05:04;;;;;;;18.77;12.07;;;9.20;99.90;;;;;;5126595;28;20174;-71
2021/03/10 10:07:31;;;;;;;26.57;11.73;;;9.20;99.90;;;;;;5127134;28;20197;-71
2021/03/10 10:09:57;;;;;;;20.50;11.93;;;9.20;99.90;;;;;;5126190;28;20331;-70
2021/03/10 10:12:24;;;;;;;12.33;10.33;;;9.10;99.90;;;;;;5128393;28;20245;-70
2021/03/10 10:14:51;;;;;;;17.27;11.83;;;9.20;99.90;;;;;;5128029;28;20170;-70
2021/03/10 10:17:17;;;;;;;17.20;11.77;;;9.40;99.90;;;;;;5128240;28;20190;-70
2021/03/10 10:19:43;;;;;;;15.47;11.63;;;9.30;99.90;;;;;;5125801;28;20187;-70
2021/03/10 10:22:10;;;;;;;15.10;11.90;;;9.50;99.90;;;;;;5127552;28;20185;-70
2021/03/10 10:24:36;;;;;;;18.60;12.87;;;9.70;99.90;;;;;;5126663;28;20202;-70
2021/03/10 10:27:02;;;;;;;23.57;13.43;;;9.80;99.90;;;;;;5128286;28;20173;-70
2021/03/10 10:29:28;;;;;;;13.97;11.23;;;9.90;99.90;;;;;;5127765;28;20301;-70
2021/03/10 10:31:54;;;;;;;18.40;11.83;;;9.80;99.90;;;;;;5124408;28;20203;-70
2021/03/10 10:34:20;;;;;;;21.60;12.80;;;9.80;99.90;;;;;;5126400;28;20382;-69
2021/03/10 10:36:45;;;;;;;18.63;11.73;;;9.70;99.90;;;;;;5127684;28;20218;-70
2021/03/10 10:39:11;;;;;;;18.23;13.27;;;9.80;99.90;;;;;;5127853;28;20163;-70
2021/03/10 10:41:36;;;;;;;22.30;13.33;;;10.00;99.90;;;;;;5124815;28;20686;-70
2021/03/10 10:44:02;;;;;;;20.43;12.57;;;10.20;99.90;;;;;;5126766;28;20203;-69
2021/03/10 10:46:28;;;;;;;19.10;12.83;;;10.10;99.90;;;;;;5127537;28;20170;-70
2021/03/10 10:48:53;;;;;;;25.23;12.60;;;9.90;99.90;;;;;;5125932;28;20605;-70
2021/03/10 10:51:21;;;;;;;17.87;12.67;;;9.90;99.90;;;;;;5124978;28;20159;-70
2021/03/10 10:53:48;;;;;;;17.27;12.80;;;10.20;99.90;;;;;;5126705;28;20158;-70
2021/03/10 10:56:14;;;;;;;22.87;13.63;;;10.40;99.90;;;;;;5127135;28;20205;-70
2021/03/10 10:58:40;;;;;;;25.70;12.93;;;10.50;99.90;;;;;;5126751;28;20159;-70
2021/03/10 11:01:05;;;;;;;23.23;13.90;;;10.40;99.90;;;;;;5123340;28;20170;-70
2021/03/10 11:03:31;;;;;;;21.97;14.10;;;10.40;99.90;;;;;;5126811;28;20159;-71
2021/03/10 11:05:57;;;;;;;27.63;15.00;;;10.40;99.90;;;;;;5126044;28;20198;-70
2021/03/10 11:08:23;;;;;;;23.33;15.60;;;10.40;99.90;;;;;;5126338;28;20399;-70
2021/03/10 11:10:48;;;;;;;25.07;15.40;;;10.60;99.90;;;;;;5124503;28;20158;-71
2021/03/10 11:13:14;;;;;;;24.00;14.83;;;10.80;99.90;;;;;;5125792;28;20253;-70
2021/03/10 11:15:39;;;;;;;21.77;13.50;;;11.00;99.90;;;;;;5126818;28;20189;-71
2021/03/10 11:18:05;;;;;;;27.15;17.08;;;10.90;99.90;;;;;;5126868;28;20427;-71
2021/03/10 11:20:31;;;;;;;27.63;16.73;;;10.80;99.90;;;;;;5123892;28;20163;-70
2021/03/10 11:22:56;;;;;;;35.97;17.47;;;10.80;99.90;;;;;;5127164;28;20186;-70
2021/03/10 11:25:22;;;;;;;28.97;17.43;;;10.90;99.90;;;;;;5126797;28;20227;-70
2021/03/10 11:27:48;;;;;;;30.47;19.03;;;10.90;99.90;;;;;;5126322;28;20214;-70
2021/03/10 11:30:14;;;;;;;25.63;16.90;;;11.00;99.90;;;;;;5124610;28;20181;-71
2021/03/10 11:32:40;;;;;;;29.60;17.80;;;10.80;99.90;;;;;;5126395;28;20533;-71
2021/03/10 11:35:07;;;;;;;31.53;17.90;;;10.80;99.90;;;;;;5126220;28;20171;-71
2021/03/10 11:37:33;;;;;;;26.30;17.37;;;11.00;99.90;;;;;;5125024;28;20200;-72
2021/03/10 11:39:59;;;;;;;25.90;15.50;;;11.00;99.90;;;;;;5124031;28;20414;-71
2021/03/10 11:42:25;;;;;;;28.80;17.53;;;11.10;99.90;;;;;;5159752;27;20166;-71
2021/03/10 11:44:50;;;;;;;28.23;19.00;;;11.10;99.90;;;;;;5126484;28;20183;-71
2021/03/10 11:47:16;;;;;;;30.67;17.30;;;11.20;99.90;;;;;;5126455;28;20159;-71
2021/03/10 11:49:43;;;;;;;27.47;16.70;;;11.20;99.90;;;;;;5124195;28;20171;-71
2021/03/10 11:52:09;;;;;;;37.43;20.07;;;11.20;99.90;;;;;;5125682;28;20665;-71
2021/03/10 11:54:35;;;;;;;29.17;19.10;;;11.30;99.90;;;;;;5126409;28;20167;-71
2021/03/10 11:57:00;;;;;;;28.00;17.13;;;11.40;99.90;;;;;;5125064;28;20252;-71
2021/03/10 11:59:26;;;;;;;27.67;16.80;;;11.40;99.90;;;;;;5126210;28;20176;-71
2021/03/10 12:01:52;;;;;;;29.90;16.77;;;11.30;99.90;;;;;;5123673;28;20158;-70
2021/03/10 12:04:18;;;;;;;32.00;17.80;;;11.20;99.90;;;;;;5125671;28;20545;-71
2021/03/10 12:06:43;;;;;;;30.63;19.27;;;11.20;99.90;;;;;;5124859;28;20169;-71
2021/03/10 12:09:09;;;;;;;30.07;18.00;;;11.10;99.90;;;;;;5126209;28;20566;-71
2021/03/10 12:11:35;;;;;;;30.80;18.63;;;11.30;99.90;;;;;;5123349;28;20155;-72
2021/03/10 12:14:00;;;;;;;34.17;20.50;;;11.40;99.90;;;;;;5159101;27;20176;-71
2021/03/10 12:16:26;;;;;;;31.17;19.67;;;11.30;99.90;;;;;;5123929;28;20257;-71
2021/03/10 12:18:52;;;;;;;32.53;20.03;;;11.20;99.90;;;;;;5125672;28;20254;-71
2021/03/10 12:21:17;;;;;;;29.77;18.47;;;11.40;99.90;;;;;;5123540;28;20177;-71
2021/03/10 12:23:43;;;;;;;30.67;18.87;;;11.50;99.90;;;;;;5126003;28;20161;-71
2021/03/10 12:26:09;;;;;;;42.57;20.27;;;11.40;99.90;;;;;;5125688;28;20542;-70
2021/03/10 12:28:35;;;;;;;37.37;20.47;;;11.50;99.90;;;;;;5125247;28;20222;-70
2021/03/10 12:31:01;;;;;;;43.30;22.13;;;11.60;99.90;;;;;;5121729;28;20173;-70
2021/03/10 12:33:27;;;;;;;38.50;21.50;;;11.90;99.90;;;;;;5125739;28;20177;-70
2021/03/10 12:35:52;;;;;;;53.37;25.07;;;11.70;99.90;;;;;;5125611;28;20254;-71
2021/03/10 12:38:18;;;;;;;40.40;22.73;;;11.70;99.90;;;;;;5125824;28;20299;-70
2021/03/10 12:40:44;;;;;;;49.43;24.10;;;11.70;99.90;;;;;;5123232;28;20155;-70